createdAt,value
2022-12-11T00:00:28.831Z,-0.54
2022-12-11T00:01:50.393Z,-0.51
2022-12-11T00:02:52.455Z,-0.49
2022-12-11T00:03:54.216Z,-0.47
2022-12-11T00:04:55.770Z,-0.47
2022-12-11T00:05:57.617Z,-0.45
2022-12-11T00:06:59.152Z,-0.43
2022-12-11T00:08:00.908Z,-0.41
2022-12-11T00:09:02.626Z,-0.39
2022-12-11T00:10:04.687Z,-0.38
2022-12-11T00:11:11.098Z,-0.37
2022-12-11T00:12:12.631Z,-0.37
2022-12-11T00:13:14.260Z,-0.36
2022-12-11T00:14:15.844Z,-0.37
2022-12-11T00:15:17.812Z,-0.35
2022-12-11T00:16:23.815Z,-0.34
2022-12-11T00:17:28.145Z,-0.32
2022-12-11T00:18:29.801Z,-0.31
2022-12-11T00:19:31.396Z,-0.31
2022-12-11T00:20:34.431Z,-0.29
2022-12-11T00:21:36.271Z,-0.30
2022-12-11T00:22:38.195Z,-0.28
2022-12-11T00:23:43.302Z,-0.27
2022-12-11T00:24:47.020Z,-0.27
2022-12-11T00:25:49.199Z,-0.26
2022-12-11T00:26:50.747Z,-0.26
2022-12-11T00:27:52.183Z,-0.25
2022-12-11T00:28:54.998Z,-0.24
2022-12-11T00:29:56.566Z,-0.25
2022-12-11T00:30:58.104Z,-0.25
2022-12-11T00:31:59.698Z,-0.25
2022-12-11T00:33:01.213Z,-0.26
2022-12-11T00:34:02.801Z,-0.26
2022-12-11T00:35:04.577Z,-0.28
2022-12-11T00:36:10.562Z,-0.28
2022-12-11T00:37:12.289Z,-0.29
2022-12-11T00:38:18.302Z,-0.29
2022-12-11T00:39:20.090Z,-0.30
2022-12-11T00:40:21.731Z,-0.30
2022-12-11T00:41:23.769Z,-0.31
2022-12-11T00:42:25.325Z,-0.30
2022-12-11T00:43:26.829Z,-0.31
2022-12-11T00:44:28.410Z,-0.31
2022-12-11T00:45:30.093Z,-0.32
2022-12-11T00:46:31.847Z,-0.32
2022-12-11T00:47:33.617Z,-0.31
2022-12-11T00:48:35.275Z,-0.30
2022-12-11T00:49:37.132Z,-0.30
2022-12-11T00:50:39.586Z,-0.28
2022-12-11T00:51:41.076Z,-0.26
2022-12-11T00:52:42.639Z,-0.24
2022-12-11T00:53:44.195Z,-0.23
2022-12-11T00:54:46.118Z,-0.22
2022-12-11T00:55:47.713Z,-0.21
2022-12-11T00:56:50.123Z,-0.19
2022-12-11T00:57:51.843Z,-0.18
2022-12-11T00:58:53.345Z,-0.16
2022-12-11T00:59:55.118Z,-0.14
2022-12-11T01:01:04.440Z,-0.12
2022-12-11T01:02:05.972Z,-0.10
2022-12-11T01:03:08.756Z,-0.09
2022-12-11T01:04:10.338Z,-0.07
2022-12-11T01:05:12.160Z,-0.04
2022-12-11T01:06:15.441Z,-0.04
2022-12-11T01:07:16.930Z,-0.04
2022-12-11T01:08:18.595Z,-0.03
2022-12-11T01:09:38.944Z,-0.00
2022-12-11T01:10:40.562Z,0.03
2022-12-11T01:11:42.608Z,0.06
2022-12-11T01:12:44.132Z,0.09
2022-12-11T01:13:46.374Z,0.11
2022-12-11T01:14:47.911Z,0.12
2022-12-11T01:15:49.492Z,0.14
2022-12-11T01:16:50.951Z,0.17
2022-12-11T01:17:52.679Z,0.19
2022-12-11T01:18:54.242Z,0.21
2022-12-11T01:19:55.927Z,0.23
2022-12-11T01:20:57.582Z,0.26
2022-12-11T01:21:59.875Z,0.27
2022-12-11T01:23:01.318Z,0.28
2022-12-11T01:24:02.964Z,0.30
2022-12-11T01:25:04.710Z,0.29
2022-12-11T01:26:13.429Z,0.31
2022-12-11T01:27:15.332Z,0.32
2022-12-11T01:28:16.859Z,0.34
2022-12-11T01:29:18.460Z,0.36
2022-12-11T01:30:21.748Z,0.37
2022-12-11T01:31:23.343Z,0.39
2022-12-11T01:32:24.790Z,0.41
2022-12-11T01:33:26.599Z,0.42
2022-12-11T01:34:28.774Z,0.42
2022-12-11T01:35:30.392Z,0.43
2022-12-11T01:36:32.119Z,0.43
2022-12-11T01:37:33.911Z,0.44
2022-12-11T01:38:35.372Z,0.43
2022-12-11T01:39:38.222Z,0.42
2022-12-11T01:40:50.517Z,0.40
2022-12-11T01:41:56.402Z,0.38
2022-12-11T01:42:57.935Z,0.38
2022-12-11T01:44:07.757Z,0.37
2022-12-11T01:45:12.581Z,0.38
2022-12-11T01:46:14.399Z,0.39
2022-12-11T01:47:16.617Z,0.38
2022-12-11T01:48:23.119Z,0.36
2022-12-11T01:49:25.659Z,0.34
2022-12-11T01:50:28.255Z,0.35
2022-12-11T01:51:31.294Z,0.35
2022-12-11T01:52:33.013Z,0.35
2022-12-11T01:53:36.542Z,0.35
2022-12-11T01:54:38.292Z,0.34
2022-12-11T01:55:40.496Z,0.33
2022-12-11T01:56:43.001Z,0.34
2022-12-11T01:57:46.499Z,0.35
2022-12-11T01:58:55.036Z,0.36
2022-12-11T01:59:56.671Z,0.37
2022-12-11T02:00:58.871Z,0.40
2022-12-11T02:02:03.491Z,0.42
2022-12-11T02:03:05.170Z,0.45
2022-12-11T02:04:07.024Z,0.48
2022-12-11T02:05:09.436Z,0.51
2022-12-11T02:06:32.045Z,0.53
2022-12-11T02:07:41.743Z,0.52
2022-12-11T02:08:43.297Z,0.53
2022-12-11T02:09:45.825Z,0.52
2022-12-11T02:10:50.583Z,0.52
2022-12-11T02:12:21.468Z,0.53
2022-12-11T02:13:27.992Z,0.54
2022-12-11T02:14:38.397Z,0.55
2022-12-11T02:15:49.901Z,0.55
2022-12-11T02:17:01.443Z,0.57
2022-12-11T02:18:38.674Z,0.57
2022-12-11T02:20:03.209Z,0.59
2022-12-11T02:21:18.591Z,0.60
2022-12-11T02:22:40.410Z,0.62
2022-12-11T02:23:50.920Z,0.64
2022-12-11T02:25:01.739Z,0.65
2022-12-11T02:26:03.483Z,0.66
2022-12-11T02:27:13.497Z,0.68
2022-12-11T02:28:29.480Z,0.68
2022-12-11T02:29:38.868Z,0.70
2022-12-11T02:32:16.724Z,0.74
2022-12-11T02:33:21.471Z,0.77
2022-12-11T02:34:28.291Z,0.79
2022-12-11T02:35:32.681Z,0.81
2022-12-11T02:36:36.861Z,0.83
2022-12-11T02:37:40.660Z,0.83
2022-12-11T02:38:46.298Z,0.84
2022-12-11T02:39:49.186Z,0.84
2022-12-11T02:40:53.050Z,0.85
2022-12-11T02:41:55.777Z,0.86
2022-12-11T02:42:59.042Z,0.86
2022-12-11T02:44:02.156Z,0.86
2022-12-11T02:45:04.226Z,0.85
2022-12-11T02:46:07.142Z,0.85
2022-12-11T02:47:11.929Z,0.86
2022-12-11T02:48:14.337Z,0.88
2022-12-11T02:49:17.168Z,0.89
2022-12-11T02:50:20.798Z,0.90
2022-12-11T02:51:25.192Z,0.90
2022-12-11T02:52:28.498Z,0.91
2022-12-11T02:53:31.736Z,0.93
2022-12-11T02:54:35.317Z,0.94
2022-12-11T02:55:37.738Z,0.96
2022-12-11T02:56:52.121Z,0.99
2022-12-11T02:58:29.433Z,1.00
2022-12-11T02:59:35.911Z,1.03
2022-12-11T03:00:37.552Z,1.03
2022-12-11T03:01:39.224Z,1.05
2022-12-11T03:02:41.636Z,1.07
2022-12-11T03:03:43.364Z,1.09
2022-12-11T03:04:45.360Z,1.11
2022-12-11T03:05:47.463Z,1.13
2022-12-11T03:06:51.201Z,1.14
2022-12-11T03:07:52.791Z,1.16
2022-12-11T03:08:54.293Z,1.18
2022-12-11T03:09:56.027Z,1.21
2022-12-11T03:10:57.679Z,1.23
2022-12-11T03:11:59.165Z,1.24
2022-12-11T03:13:02.049Z,1.25
2022-12-11T03:14:03.954Z,1.25
2022-12-11T03:15:07.675Z,1.27
2022-12-11T03:16:28.304Z,1.27
2022-12-11T03:17:34.847Z,1.27
2022-12-11T03:18:36.357Z,1.28
2022-12-11T03:19:45.384Z,1.29
2022-12-11T03:20:57.562Z,1.31
2022-12-11T03:22:02.083Z,1.33
2022-12-11T03:23:08.915Z,1.35
2022-12-11T03:24:16.694Z,1.38
2022-12-11T03:25:18.155Z,1.39
2022-12-11T03:26:20.400Z,1.41
2022-12-11T03:27:26.065Z,1.44
2022-12-11T03:28:41.058Z,1.46
2022-12-11T03:29:48.604Z,1.49
2022-12-11T03:30:52.262Z,1.51
2022-12-11T03:31:58.744Z,1.53
2022-12-11T03:33:23.177Z,1.56
2022-12-11T03:34:35.029Z,1.58
2022-12-11T03:35:39.677Z,1.61
2022-12-11T03:36:41.950Z,1.63
2022-12-11T03:37:44.364Z,1.65
2022-12-11T03:38:49.769Z,1.67
2022-12-11T03:39:53.360Z,1.69
2022-12-11T03:40:57.585Z,1.71
2022-12-11T03:42:01.110Z,1.71
2022-12-11T03:43:04.222Z,1.73
2022-12-11T03:44:06.574Z,1.74
2022-12-11T03:45:08.625Z,1.77
2022-12-11T03:46:12.326Z,1.78
2022-12-11T03:47:17.073Z,1.81
2022-12-11T03:48:20.354Z,1.82
2022-12-11T03:49:27.298Z,1.84
2022-12-11T03:50:30.895Z,1.86
2022-12-11T03:51:33.755Z,1.86
2022-12-11T03:52:40.976Z,1.88
2022-12-11T03:53:47.195Z,1.88
2022-12-11T03:54:50.175Z,1.88
2022-12-11T03:55:52.720Z,1.87
2022-12-11T03:56:56.945Z,1.86
2022-12-11T03:57:58.521Z,1.86
2022-12-11T03:58:59.927Z,1.84
2022-12-11T04:00:04.247Z,1.82
2022-12-11T04:01:13.576Z,1.80
2022-12-11T04:02:15.043Z,1.78
2022-12-11T04:03:17.345Z,1.77
2022-12-11T04:04:18.993Z,1.76
2022-12-11T04:05:20.671Z,1.73
2022-12-11T04:06:22.170Z,1.72
2022-12-11T04:07:23.959Z,1.70
2022-12-11T04:08:25.584Z,1.69
2022-12-11T04:09:27.124Z,1.67
2022-12-11T04:10:28.871Z,1.66
2022-12-11T04:11:36.148Z,1.66
2022-12-11T04:12:37.888Z,1.66
2022-12-11T04:13:40.299Z,1.66
2022-12-11T04:15:00.617Z,1.66
2022-12-11T04:16:02.438Z,1.65
2022-12-11T04:17:03.934Z,1.66
2022-12-11T04:18:25.003Z,1.66
2022-12-11T04:19:45.418Z,1.67
2022-12-11T04:21:06.009Z,1.67
2022-12-11T04:22:27.986Z,1.67
2022-12-11T04:23:48.538Z,1.68
2022-12-11T04:24:50.081Z,1.68
2022-12-11T04:25:51.540Z,1.69
2022-12-11T04:26:53.098Z,1.69
2022-12-11T04:27:54.741Z,1.69
2022-12-11T04:28:56.278Z,1.68
2022-12-11T04:29:57.778Z,1.69
2022-12-11T04:30:59.354Z,1.68
2022-12-11T04:32:00.965Z,1.67
2022-12-11T04:33:02.733Z,1.66
2022-12-11T04:34:04.366Z,1.64
2022-12-11T04:35:07.533Z,1.63
2022-12-11T04:36:09.794Z,1.62
2022-12-11T04:37:11.321Z,1.62
2022-12-11T04:38:13.093Z,1.61
2022-12-11T04:39:14.657Z,1.61
2022-12-11T04:40:17.530Z,1.59
2022-12-11T04:41:19.299Z,1.58
2022-12-11T04:42:21.057Z,1.58
2022-12-11T04:43:22.571Z,1.57
2022-12-11T04:44:24.066Z,1.58
2022-12-11T04:45:25.537Z,1.58
2022-12-11T04:46:27.149Z,1.57
2022-12-11T04:47:28.707Z,1.57
2022-12-11T04:48:30.280Z,1.57
2022-12-11T04:49:31.823Z,1.55
2022-12-11T04:50:33.292Z,1.56
2022-12-11T04:51:34.802Z,1.57
2022-12-11T04:52:36.309Z,1.57
2022-12-11T04:53:38.630Z,1.60
2022-12-11T04:54:40.555Z,1.62
2022-12-11T04:55:42.051Z,1.63
2022-12-11T04:56:43.465Z,1.65
2022-12-11T04:57:44.981Z,1.67
2022-12-11T04:58:51.022Z,1.69
2022-12-11T04:59:52.460Z,1.70
2022-12-11T05:00:53.927Z,1.72
2022-12-11T05:01:55.538Z,1.74
2022-12-11T05:02:57.171Z,1.76
2022-12-11T05:03:59.465Z,1.78
2022-12-11T05:05:02.547Z,1.80
2022-12-11T05:06:04.204Z,1.80
2022-12-11T05:07:05.653Z,1.80
2022-12-11T05:08:07.669Z,1.82
2022-12-11T05:09:12.699Z,1.83
2022-12-11T05:10:14.179Z,1.84
2022-12-11T05:11:16.789Z,1.86
2022-12-11T05:12:18.251Z,1.87
2022-12-11T05:13:19.708Z,1.88
2022-12-11T05:14:21.573Z,1.89
2022-12-11T05:15:23.261Z,1.90
2022-12-11T05:16:24.813Z,1.91
2022-12-11T05:17:26.315Z,1.92
2022-12-11T05:18:27.858Z,1.93
2022-12-11T05:19:29.473Z,1.94
2022-12-11T05:20:30.945Z,1.95
2022-12-11T05:21:35.173Z,1.96
2022-12-11T05:22:37.421Z,1.97
2022-12-11T05:23:39.002Z,1.97
2022-12-11T05:24:40.774Z,1.99
2022-12-11T05:25:42.311Z,1.99
2022-12-11T05:26:43.840Z,2.00
2022-12-11T05:27:45.317Z,2.00
2022-12-11T05:28:50.057Z,2.00
2022-12-11T05:29:54.864Z,1.99
2022-12-11T05:31:02.841Z,2.00
2022-12-11T05:32:04.457Z,1.99
2022-12-11T05:33:06.036Z,1.98
2022-12-11T05:34:07.551Z,1.96
2022-12-11T05:35:09.777Z,1.95
2022-12-11T05:36:16.170Z,1.93
2022-12-11T05:37:17.659Z,1.93
2022-12-11T05:38:19.782Z,1.94
2022-12-11T05:39:21.411Z,1.94
2022-12-11T05:40:22.989Z,1.95
2022-12-11T05:41:25.777Z,1.96
2022-12-11T05:42:29.124Z,1.96
2022-12-11T05:43:31.877Z,1.97
2022-12-11T05:44:33.354Z,2.00
2022-12-11T05:45:34.940Z,2.03
2022-12-11T05:46:36.462Z,2.07
2022-12-11T05:47:37.953Z,2.10
2022-12-11T05:48:39.926Z,2.13
2022-12-11T05:49:41.409Z,2.15
2022-12-11T05:50:42.965Z,2.18
2022-12-11T05:51:44.419Z,2.22
2022-12-11T05:52:45.857Z,2.25
2022-12-11T05:53:49.039Z,2.27
2022-12-11T05:54:50.484Z,2.33
2022-12-11T05:55:52.253Z,2.36
2022-12-11T05:56:53.784Z,2.39
2022-12-11T05:57:55.248Z,2.42
2022-12-11T05:58:57.177Z,2.45
2022-12-11T05:59:58.726Z,2.48
2022-12-11T06:01:00.742Z,2.51
2022-12-11T06:02:02.418Z,2.55
2022-12-11T06:03:04.021Z,2.57
2022-12-11T06:04:06.864Z,2.61
2022-12-11T06:05:08.569Z,2.65
2022-12-11T06:06:10.497Z,2.68
2022-12-11T06:07:12.563Z,2.71
2022-12-11T06:08:14.297Z,2.75
2022-12-11T06:09:16.556Z,2.76
2022-12-11T06:10:18.366Z,2.75
2022-12-11T06:11:23.979Z,2.77
2022-12-11T06:12:26.662Z,2.81
2022-12-11T06:13:28.161Z,2.84
2022-12-11T06:14:29.631Z,2.87
2022-12-11T06:15:31.771Z,2.90
2022-12-11T06:16:33.509Z,2.93
2022-12-11T06:17:35.170Z,2.96
2022-12-11T06:18:37.734Z,2.97
2022-12-11T06:19:39.334Z,2.99
2022-12-11T06:20:40.796Z,3.00
2022-12-11T06:21:43.328Z,3.02
2022-12-11T06:22:44.845Z,3.03
2022-12-11T06:23:47.283Z,3.05
2022-12-11T06:24:48.726Z,3.07
2022-12-11T06:25:50.321Z,3.07
2022-12-11T06:26:51.937Z,3.09
2022-12-11T06:27:53.494Z,3.09
2022-12-11T06:28:55.079Z,3.09
2022-12-11T06:29:56.572Z,3.11
2022-12-11T06:30:58.754Z,3.11
2022-12-11T06:32:00.411Z,3.14
2022-12-11T06:33:01.949Z,3.16
2022-12-11T06:34:03.390Z,3.17
2022-12-11T06:35:05.219Z,3.17
2022-12-11T06:36:08.248Z,3.19
2022-12-11T06:37:10.092Z,3.21
2022-12-11T06:38:11.529Z,3.20
2022-12-11T06:39:13.003Z,3.21
2022-12-11T06:40:14.514Z,3.20
2022-12-11T06:41:16.648Z,3.16
2022-12-11T06:42:18.333Z,3.14
2022-12-11T06:43:19.903Z,3.19
2022-12-11T06:44:21.798Z,3.21
2022-12-11T06:45:23.319Z,3.22
2022-12-11T06:46:24.801Z,3.25
2022-12-11T06:47:26.929Z,3.27
2022-12-11T06:48:28.431Z,3.29
2022-12-11T06:49:29.952Z,3.27
2022-12-11T06:50:31.481Z,3.28
2022-12-11T06:51:33.004Z,3.28
2022-12-11T06:52:34.670Z,3.27
2022-12-11T06:53:36.534Z,3.27
2022-12-11T06:54:38.105Z,3.28
2022-12-11T06:55:39.681Z,3.29
2022-12-11T06:56:41.290Z,3.29
2022-12-11T06:57:42.931Z,3.28
2022-12-11T06:58:44.460Z,3.26
2022-12-11T06:59:45.926Z,3.23
2022-12-11T07:00:47.758Z,3.21
2022-12-11T07:01:49.405Z,3.22
2022-12-11T07:02:51.094Z,3.26
2022-12-11T07:03:53.608Z,3.29
2022-12-11T07:04:55.483Z,3.27
2022-12-11T07:06:01.614Z,3.28
2022-12-11T07:07:03.160Z,3.30
2022-12-11T07:08:06.943Z,3.30
2022-12-11T07:09:09.919Z,3.33
2022-12-11T07:10:11.541Z,3.35
2022-12-11T07:11:14.317Z,3.37
2022-12-11T07:12:16.169Z,3.39
2022-12-11T07:13:17.787Z,3.39
2022-12-11T07:14:20.452Z,3.41
2022-12-11T07:15:21.957Z,3.43
2022-12-11T07:16:23.426Z,3.42
2022-12-11T07:17:25.282Z,3.46
2022-12-11T07:18:27.326Z,3.47
2022-12-11T07:19:28.921Z,3.50
2022-12-11T07:20:30.378Z,3.53
2022-12-11T07:21:31.809Z,3.52
2022-12-11T07:22:33.365Z,3.54
2022-12-11T07:23:35.622Z,3.56
2022-12-11T07:24:37.115Z,3.57
2022-12-11T07:25:38.660Z,3.57
2022-12-11T07:26:40.231Z,3.57
2022-12-11T07:27:41.795Z,3.61
2022-12-11T07:28:43.813Z,3.61
2022-12-11T07:29:45.474Z,3.61
2022-12-11T07:30:47.177Z,3.64
2022-12-11T07:31:48.806Z,3.65
2022-12-11T07:32:50.444Z,3.66
2022-12-11T07:33:59.635Z,3.69
2022-12-11T07:35:01.215Z,3.73
2022-12-11T07:36:04.243Z,3.73
2022-12-11T07:37:05.836Z,3.75
2022-12-11T07:38:07.866Z,3.80
2022-12-11T07:39:13.084Z,3.83
2022-12-11T07:40:14.864Z,3.82
2022-12-11T07:41:17.144Z,3.82
2022-12-11T07:42:18.976Z,3.84
2022-12-11T07:43:20.615Z,3.84
2022-12-11T07:44:22.898Z,3.84
2022-12-11T07:45:25.804Z,3.84
2022-12-11T07:46:28.423Z,3.85
2022-12-11T07:47:30.064Z,3.87
2022-12-11T07:48:31.723Z,3.90
2022-12-11T07:49:33.360Z,3.91
2022-12-11T07:50:39.764Z,3.90
2022-12-11T07:51:42.030Z,3.89
2022-12-11T07:52:44.007Z,3.83
2022-12-11T07:53:47.128Z,3.83
2022-12-11T07:54:48.823Z,3.88
2022-12-11T07:55:50.345Z,3.94
2022-12-11T07:56:54.012Z,3.94
2022-12-11T07:57:55.641Z,3.95
2022-12-11T07:59:01.064Z,3.98
2022-12-11T08:00:04.110Z,4.00
2022-12-11T08:01:34.882Z,4.03
2022-12-11T08:02:37.537Z,4.00
2022-12-11T08:03:39.399Z,4.00
2022-12-11T08:04:40.985Z,4.04
2022-12-11T08:05:49.595Z,4.07
2022-12-11T08:06:51.073Z,4.07
2022-12-11T08:07:52.602Z,4.09
2022-12-11T08:08:57.823Z,4.09
2022-12-11T08:09:59.550Z,4.11
2022-12-11T08:11:11.687Z,4.14
2022-12-11T08:12:13.398Z,4.13
2022-12-11T08:13:14.911Z,4.14
2022-12-11T08:14:17.306Z,4.16
2022-12-11T08:15:18.839Z,4.19
2022-12-11T08:16:20.943Z,4.20
2022-12-11T08:17:27.417Z,4.20
2022-12-11T08:18:32.661Z,4.17
2022-12-11T08:19:34.238Z,4.13
2022-12-11T08:20:37.239Z,4.13
2022-12-11T08:21:39.470Z,4.15
2022-12-11T08:22:41.126Z,4.18
2022-12-11T08:23:42.831Z,4.20
2022-12-11T08:24:44.253Z,4.19
2022-12-11T08:25:45.844Z,4.20
2022-12-11T08:26:48.676Z,4.20
2022-12-11T08:27:50.461Z,4.16
2022-12-11T08:28:52.319Z,4.14
2022-12-11T08:29:53.777Z,4.18
2022-12-11T08:30:55.345Z,4.20
2022-12-11T08:31:57.165Z,4.20
2022-12-11T08:32:59.224Z,4.20
2022-12-11T08:34:01.292Z,4.17
2022-12-11T08:35:02.935Z,4.16
2022-12-11T08:36:06.502Z,4.15
2022-12-11T08:37:08.176Z,4.16
2022-12-11T08:38:09.690Z,4.18
2022-12-11T08:39:11.235Z,4.19
2022-12-11T08:40:13.470Z,4.22
2022-12-11T08:41:16.477Z,4.26
2022-12-11T08:42:18.261Z,4.27
2022-12-11T08:43:19.943Z,4.27
2022-12-11T08:44:24.360Z,4.24
2022-12-11T08:45:26.429Z,4.25
2022-12-11T08:46:31.724Z,4.25
2022-12-11T08:47:33.405Z,4.25
2022-12-11T08:48:36.089Z,4.25
2022-12-11T08:49:37.538Z,4.24
2022-12-11T08:50:39.065Z,4.27
2022-12-11T08:51:40.535Z,4.28
2022-12-11T08:52:42.193Z,4.29
2022-12-11T08:53:44.342Z,4.31
2022-12-11T08:54:47.732Z,4.32
2022-12-11T08:55:49.131Z,4.34
2022-12-11T08:56:54.872Z,4.35
2022-12-11T08:58:00.347Z,4.36
2022-12-11T08:59:04.818Z,4.33
2022-12-11T09:00:20.674Z,4.29
2022-12-11T09:01:24.028Z,4.24
2022-12-11T09:02:25.641Z,4.24
2022-12-11T09:03:27.635Z,4.21
2022-12-11T09:04:29.424Z,4.20
2022-12-11T09:05:30.951Z,4.19
2022-12-11T09:06:32.758Z,4.17
2022-12-11T09:07:35.157Z,4.15
2022-12-11T09:08:37.473Z,4.16
2022-12-11T09:09:39.301Z,4.18
2022-12-11T09:10:41.007Z,4.17
2022-12-11T09:11:42.488Z,4.17
2022-12-11T09:12:44.483Z,4.19
2022-12-11T09:13:46.211Z,4.18
2022-12-11T09:14:47.698Z,4.16
2022-12-11T09:15:49.168Z,4.15
2022-12-11T09:16:50.612Z,4.15
2022-12-11T09:17:52.431Z,4.14
2022-12-11T09:18:55.795Z,4.13
2022-12-11T09:19:57.621Z,4.09
2022-12-11T09:21:00.294Z,4.10
2022-12-11T09:22:01.725Z,4.07
2022-12-11T09:23:04.081Z,4.04
2022-12-11T09:24:06.114Z,4.02
2022-12-11T09:25:09.228Z,4.01
2022-12-11T09:26:12.711Z,4.02
2022-12-11T09:27:14.465Z,4.03
2022-12-11T09:28:16.096Z,4.04
2022-12-11T09:29:17.866Z,4.06
2022-12-11T09:30:19.517Z,4.06
2022-12-11T09:31:23.342Z,4.05
2022-12-11T09:32:24.996Z,4.06
2022-12-11T09:33:27.100Z,4.08
2022-12-11T09:34:29.657Z,4.05
2022-12-11T09:35:31.556Z,4.06
2022-12-11T09:36:33.566Z,4.07
2022-12-11T09:37:35.473Z,4.07
2022-12-11T09:38:38.195Z,4.06
2022-12-11T09:39:39.898Z,4.02
2022-12-11T09:40:42.579Z,4.02
2022-12-11T09:42:03.024Z,4.00
2022-12-11T09:43:18.000Z,4.01
2022-12-11T09:44:31.622Z,3.99
2022-12-11T09:45:49.676Z,4.01
2022-12-11T09:46:51.362Z,4.01
2022-12-11T09:47:54.910Z,4.01
2022-12-11T09:48:56.836Z,4.02
2022-12-11T09:50:03.951Z,4.03
2022-12-11T09:51:14.127Z,4.02
2022-12-11T09:52:15.641Z,4.02
2022-12-11T09:53:17.070Z,4.02
2022-12-11T09:54:18.512Z,4.01
2022-12-11T09:55:23.602Z,4.03
2022-12-11T09:56:31.001Z,4.04
2022-12-11T09:57:42.299Z,4.03
2022-12-11T09:58:55.780Z,4.01
2022-12-11T10:00:04.786Z,4.02
2022-12-11T10:01:07.073Z,4.00
2022-12-11T10:02:30.877Z,3.98
2022-12-11T10:04:06.613Z,3.95
2022-12-11T10:05:21.139Z,3.97
2022-12-11T10:06:32.616Z,3.95
2022-12-11T10:07:41.534Z,3.96
2022-12-11T10:08:57.186Z,3.97
2022-12-11T10:10:12.436Z,3.96
2022-12-11T10:11:32.523Z,3.94
2022-12-11T10:12:40.448Z,3.90
2022-12-11T10:14:02.453Z,3.90
2022-12-11T10:15:12.216Z,3.88
2022-12-11T10:16:14.065Z,3.88
2022-12-11T10:17:20.169Z,3.86
2022-12-11T10:18:23.449Z,3.87
2022-12-11T10:19:30.326Z,3.89
2022-12-11T10:20:39.156Z,3.89
2022-12-11T10:21:42.638Z,3.91
2022-12-11T10:22:44.787Z,3.88
2022-12-11T10:24:12.450Z,3.89
2022-12-11T10:25:20.118Z,3.90
2022-12-11T10:26:22.588Z,3.91
2022-12-11T10:27:30.508Z,3.94
2022-12-11T10:28:32.114Z,3.95
2022-12-11T10:29:33.760Z,3.96
2022-12-11T10:30:37.328Z,3.96
2022-12-11T10:31:57.838Z,3.98
2022-12-11T10:33:05.161Z,3.99
2022-12-11T10:34:12.845Z,3.98
2022-12-11T10:35:20.082Z,3.95
2022-12-11T10:36:44.770Z,3.95
2022-12-11T10:37:46.359Z,3.95
2022-12-11T10:38:48.058Z,3.96
2022-12-11T10:39:49.510Z,3.96
2022-12-11T10:40:57.539Z,3.98
2022-12-11T10:42:04.086Z,3.96
2022-12-11T10:43:05.732Z,3.96
2022-12-11T10:44:34.170Z,3.95
2022-12-11T10:45:35.793Z,3.96
2022-12-11T10:46:38.239Z,3.96
2022-12-11T10:47:40.569Z,3.95
2022-12-11T10:48:52.944Z,3.96
2022-12-11T10:50:01.450Z,3.99
2022-12-11T10:51:06.525Z,3.99
2022-12-11T10:52:29.139Z,3.99
2022-12-11T10:53:31.559Z,4.03
2022-12-11T10:54:33.131Z,4.03
2022-12-11T10:55:45.075Z,4.02
2022-12-11T10:56:47.741Z,4.03
2022-12-11T10:57:58.068Z,4.05
2022-12-11T10:59:00.774Z,4.06
2022-12-11T11:00:05.838Z,4.05
2022-12-11T11:01:07.391Z,4.07
2022-12-11T11:02:23.306Z,4.10
2022-12-11T11:03:27.169Z,4.12
2022-12-11T11:04:31.609Z,4.13
2022-12-11T11:05:35.101Z,4.15
2022-12-11T11:06:37.026Z,4.17
2022-12-11T11:07:40.156Z,4.21
2022-12-11T11:08:43.757Z,4.24
2022-12-11T11:09:46.068Z,4.25
2022-12-11T11:10:53.357Z,4.27
2022-12-11T11:11:55.055Z,4.28
2022-12-11T11:13:00.718Z,4.30
2022-12-11T11:14:05.296Z,4.32
2022-12-11T11:15:14.795Z,4.33
2022-12-11T11:16:18.655Z,4.37
2022-12-11T11:17:20.278Z,4.40
2022-12-11T11:18:25.568Z,4.43
2022-12-11T11:19:30.270Z,4.45
2022-12-11T11:20:33.644Z,4.42
2022-12-11T11:21:35.773Z,4.43
2022-12-11T11:22:44.698Z,4.47
2022-12-11T11:23:51.875Z,4.48
2022-12-11T11:24:56.299Z,4.49
2022-12-11T11:25:59.694Z,4.51
2022-12-11T11:27:12.751Z,4.55
2022-12-11T11:28:20.518Z,4.55
2022-12-11T11:29:32.483Z,4.54
2022-12-11T11:30:35.873Z,4.54
2022-12-11T11:31:37.786Z,4.54
2022-12-11T11:32:40.402Z,4.53
2022-12-11T11:33:49.002Z,4.52
2022-12-11T11:34:53.352Z,4.51
2022-12-11T11:36:03.038Z,4.50
2022-12-11T11:37:05.497Z,4.49
2022-12-11T11:38:33.314Z,4.51
2022-12-11T11:39:44.336Z,4.51
2022-12-11T11:41:05.594Z,4.49
2022-12-11T11:42:14.787Z,4.49
2022-12-11T11:43:35.321Z,4.48
2022-12-11T11:44:39.874Z,4.41
2022-12-11T11:45:53.160Z,4.39
2022-12-11T11:47:01.601Z,4.39
2022-12-11T11:48:19.172Z,4.41
2022-12-11T11:49:23.417Z,4.41
2022-12-11T11:50:29.195Z,4.41
2022-12-11T11:51:35.533Z,4.42
2022-12-11T11:52:36.983Z,4.41
2022-12-11T11:53:40.915Z,4.44
2022-12-11T11:54:42.397Z,4.48
2022-12-11T11:56:02.589Z,4.51
2022-12-11T11:57:24.339Z,4.54
2022-12-11T11:58:30.542Z,4.59
2022-12-11T11:59:54.970Z,4.59
2022-12-11T12:00:57.663Z,4.61
2022-12-11T12:01:59.169Z,4.60
2022-12-11T12:03:05.373Z,4.60
2022-12-11T12:04:07.162Z,4.62
2022-12-11T12:05:13.439Z,4.62
2022-12-11T12:06:21.028Z,4.61
2022-12-11T12:07:37.423Z,4.58
2022-12-11T12:08:46.292Z,4.59
2022-12-11T12:10:00.710Z,4.61
2022-12-11T12:11:09.588Z,4.63
2022-12-11T12:12:22.808Z,4.64
2022-12-11T12:13:51.762Z,4.62
2022-12-11T12:14:53.403Z,4.65
2022-12-11T12:15:54.989Z,4.66
2022-12-11T12:17:18.364Z,4.65
2022-12-11T12:18:19.963Z,4.67
2022-12-11T12:19:40.346Z,4.69
2022-12-11T12:20:52.741Z,4.72
2022-12-11T12:21:54.261Z,4.73
2022-12-11T12:22:59.889Z,4.73
2022-12-11T12:24:04.504Z,4.73
2022-12-11T12:25:18.094Z,4.73
2022-12-11T12:26:28.180Z,4.67
2022-12-11T12:27:52.010Z,4.63
2022-12-11T12:29:19.262Z,4.58
2022-12-11T12:30:23.381Z,4.52
2022-12-11T12:31:31.981Z,4.48
2022-12-11T12:32:36.199Z,4.48
2022-12-11T12:33:46.638Z,4.49
2022-12-11T12:34:52.115Z,4.49
2022-12-11T12:36:06.898Z,4.48
2022-12-11T12:37:26.429Z,4.49
2022-12-11T12:38:30.967Z,4.47
2022-12-11T12:39:51.516Z,4.47
2022-12-11T12:41:01.658Z,4.45
2022-12-11T12:42:16.821Z,4.45
2022-12-11T12:43:22.981Z,4.45
2022-12-11T12:44:27.172Z,4.43
2022-12-11T12:45:43.775Z,4.44
2022-12-11T12:46:51.904Z,4.45
2022-12-11T12:47:56.925Z,4.45
2022-12-11T12:48:59.642Z,4.43
2022-12-11T12:50:02.153Z,4.37
2022-12-11T12:51:04.091Z,4.38
2022-12-11T12:52:09.941Z,4.39
2022-12-11T12:53:15.943Z,4.43
2022-12-11T12:54:19.046Z,4.45
2022-12-11T12:55:22.945Z,4.45
2022-12-11T12:56:25.473Z,4.42
2022-12-11T12:57:27.046Z,4.44
2022-12-11T12:58:30.603Z,4.46
2022-12-11T12:59:32.118Z,4.46
2022-12-11T13:00:38.208Z,4.45
2022-12-11T13:01:45.735Z,4.44
2022-12-11T13:02:49.854Z,4.42
2022-12-11T13:03:59.046Z,4.40
2022-12-11T13:05:05.401Z,4.37
2022-12-11T13:06:10.170Z,4.35
2022-12-11T13:07:26.542Z,4.32
2022-12-11T13:08:41.262Z,4.31
2022-12-11T13:09:43.087Z,4.31
2022-12-11T13:10:44.722Z,4.30
2022-12-11T13:11:49.524Z,4.28
2022-12-11T13:12:51.640Z,4.28
2022-12-11T13:14:12.366Z,4.28
2022-12-11T13:15:32.607Z,4.26
2022-12-11T13:16:43.937Z,4.25
2022-12-11T13:17:45.661Z,4.25
2022-12-11T13:18:47.789Z,4.25
2022-12-11T13:19:50.827Z,4.24
2022-12-11T13:20:52.617Z,4.19
2022-12-11T13:22:12.557Z,4.19
2022-12-11T13:23:18.845Z,4.16
2022-12-11T13:24:20.351Z,4.16
2022-12-11T13:25:24.650Z,4.17
2022-12-11T13:26:27.212Z,4.17
2022-12-11T13:27:28.727Z,4.16
2022-12-11T13:28:32.563Z,4.11
2022-12-11T13:29:36.187Z,4.09
2022-12-11T13:30:38.584Z,4.08
2022-12-11T13:31:43.085Z,4.08
2022-12-11T13:32:53.686Z,4.09
2022-12-11T13:33:56.574Z,4.10
2022-12-11T13:35:03.394Z,4.11
2022-12-11T13:36:21.477Z,4.11
2022-12-11T13:37:32.338Z,4.12
2022-12-11T13:38:34.754Z,4.10
2022-12-11T13:39:39.145Z,4.04
2022-12-11T13:40:42.338Z,4.02
2022-12-11T13:41:49.836Z,4.00
2022-12-11T13:42:56.408Z,3.96
2022-12-11T13:43:58.222Z,3.93
2022-12-11T13:45:00.979Z,3.92
2022-12-11T13:46:04.725Z,3.88
2022-12-11T13:47:11.475Z,3.83
2022-12-11T13:48:17.230Z,3.79
2022-12-11T13:49:25.144Z,3.78
2022-12-11T13:50:31.146Z,3.77
2022-12-11T13:51:35.228Z,3.75
2022-12-11T13:52:37.076Z,3.73
2022-12-11T13:53:38.743Z,3.74
2022-12-11T13:54:46.271Z,3.74
2022-12-11T13:55:58.751Z,3.76
2022-12-11T13:57:14.501Z,3.78
2022-12-11T13:58:17.878Z,3.76
2022-12-11T13:59:23.022Z,3.72
2022-12-11T14:00:26.077Z,3.71
2022-12-11T14:01:30.390Z,3.71
2022-12-11T14:02:33.610Z,3.72
2022-12-11T14:03:38.295Z,3.73
2022-12-11T14:04:40.261Z,3.72
2022-12-11T14:05:42.093Z,3.71
2022-12-11T14:06:43.725Z,3.68
2022-12-11T14:07:50.110Z,3.66
2022-12-11T14:08:53.530Z,3.64
2022-12-11T14:10:00.035Z,3.62
2022-12-11T14:11:02.249Z,3.60
2022-12-11T14:12:03.900Z,3.56
2022-12-11T14:13:06.507Z,3.52
2022-12-11T14:14:17.282Z,3.53
2022-12-11T14:15:19.120Z,3.52
2022-12-11T14:16:22.967Z,3.47
2022-12-11T14:17:26.199Z,3.46
2022-12-11T14:18:31.130Z,3.44
2022-12-11T14:19:33.169Z,3.46
2022-12-11T14:20:34.784Z,3.45
2022-12-11T14:21:36.399Z,3.40